Aviation Digital Data Service (ADDS)

Output produced by METARs form (1157 UTC 26 March 2019)
found at http://www.aviationweather.gov/metar/data/
 
OTBD 261130Z 07004KT 040V120 4000 DU FEW030 SCT120 OVC200 26/18 Q1009 NOSIG
TAF OTBD 261125Z 2612/2718 05010KT 6000 FEW030 SCT100 BKN120 
     TEMPO 2612/2618 3000 DU 
     TEMPO 2615/2706 4000 -RA 
     PROB30 
     TEMPO 2618/2703 VRB15G25KT 4000 -TSRA FEW035CB
       
OTBH 261056Z 28004KT 5000 HZ SCT100 OVC180 30/16 A2979 RMK AO2A SLP089 T02960157 $
TAF AMD OTBH 261022Z 2610/2713 14009KT 5000 HZ OVC150 QNH2972INS 
     BECMG 2610/2611 33010G15KT 6000 HZ SCT100 BKN150 QNH2974INS 
     TEMPO 2612/2614 33015G25KT 
     BECMG 2616/2617 36012KT 9000 -SHRA FEW070 QNH2980INS 
     BECMG 2620/2621 33009KT 9000 HZ FEW080 QNH2981INS 
     BECMG 2700/2701 02012KT 9999 VCTS SCT090CB QNH2990INS 
     BECMG 2705/2706 02009KT 9000 HZ FEW090 QNH2991INS TX30/2613Z TN18/2703Z